sensor_id;sensor_type;location;lat;lon;timestamp;P1;durP1;ratioP1;P2;durP2;ratioP2
56037;SDS011;41907;47.848;9.000;2023-02-23T00:00:33;23.90;;;14.18;;
56037;SDS011;41907;47.848;9.000;2023-02-23T00:02:59;28.80;;;15.95;;
56037;SDS011;41907;47.848;9.000;2023-02-23T00:05:29;25.98;;;16.35;;
56037;SDS011;41907;47.848;9.000;2023-02-23T00:07:59;27.33;;;15.38;;
56037;SDS011;41907;47.848;9.000;2023-02-23T00:10:24;30.35;;;16.58;;
56037;SDS011;41907;47.848;9.000;2023-02-23T00:12:57;29.92;;;15.65;;
56037;SDS011;41907;47.848;9.000;2023-02-23T00:15:23;29.13;;;16.33;;
56037;SDS011;41907;47.848;9.000;2023-02-23T00:17:53;29.42;;;16.88;;
56037;SDS011;41907;47.848;9.000;2023-02-23T00:20:20;30.42;;;16.92;;
56037;SDS011;41907;47.848;9.000;2023-02-23T00:22:51;34.47;;;17.38;;
56037;SDS011;41907;47.848;9.000;2023-02-23T00:25:20;31.05;;;17.52;;
56037;SDS011;41907;47.848;9.000;2023-02-23T00:27:46;31.02;;;16.98;;
56037;SDS011;41907;47.848;9.000;2023-02-23T00:30:12;30.55;;;16.95;;
56037;SDS011;41907;47.848;9.000;2023-02-23T00:32:38;31.95;;;16.17;;
56037;SDS011;41907;47.848;9.000;2023-02-23T00:35:04;34.75;;;18.17;;
56037;SDS011;41907;47.848;9.000;2023-02-23T00:37:35;29.30;;;17.13;;
56037;SDS011;41907;47.848;9.000;2023-02-23T00:40:01;28.48;;;16.23;;
56037;SDS011;41907;47.848;9.000;2023-02-23T00:42:27;28.88;;;15.80;;
56037;SDS011;41907;47.848;9.000;2023-02-23T00:44:56;37.40;;;18.42;;
56037;SDS011;41907;47.848;9.000;2023-02-23T00:47:21;28.70;;;16.05;;
56037;SDS011;41907;47.848;9.000;2023-02-23T00:49:46;30.35;;;17.30;;
56037;SDS011;41907;47.848;9.000;2023-02-23T00:52:12;26.17;;;15.45;;
56037;SDS011;41907;47.848;9.000;2023-02-23T00:54:38;31.58;;;15.98;;
56037;SDS011;41907;47.848;9.000;2023-02-23T00:57:04;28.90;;;15.85;;
56037;SDS011;41907;47.848;9.000;2023-02-23T00:59:29;27.45;;;15.45;;
56037;SDS011;41907;47.848;9.000;2023-02-23T01:01:54;29.58;;;16.20;;
56037;SDS011;41907;47.848;9.000;2023-02-23T01:04:20;25.65;;;15.73;;
56037;SDS011;41907;47.848;9.000;2023-02-23T01:06:47;26.10;;;15.38;;
56037;SDS011;41907;47.848;9.000;2023-02-23T01:09:13;26.63;;;15.95;;
56037;SDS011;41907;47.848;9.000;2023-02-23T01:11:45;28.20;;;17.08;;
56037;SDS011;41907;47.848;9.000;2023-02-23T01:14:11;31.40;;;18.25;;
56037;SDS011;41907;47.848;9.000;2023-02-23T01:16:36;33.97;;;18.33;;
56037;SDS011;41907;47.848;9.000;2023-02-23T01:19:03;30.67;;;17.00;;
56037;SDS011;41907;47.848;9.000;2023-02-23T01:21:31;33.17;;;17.38;;
56037;SDS011;41907;47.848;9.000;2023-02-23T01:23:58;28.73;;;16.98;;
56037;SDS011;41907;47.848;9.000;2023-02-23T01:26:25;30.77;;;17.05;;
56037;SDS011;41907;47.848;9.000;2023-02-23T01:28:53;31.75;;;16.90;;
56037;SDS011;41907;47.848;9.000;2023-02-23T01:31:25;34.88;;;18.17;;
56037;SDS011;41907;47.848;9.000;2023-02-23T01:33:54;31.02;;;16.90;;
56037;SDS011;41907;47.848;9.000;2023-02-23T01:36:20;30.92;;;17.88;;
56037;SDS011;41907;47.848;9.000;2023-02-23T01:38:47;31.45;;;16.95;;
56037;SDS011;41907;47.848;9.000;2023-02-23T01:41:13;30.70;;;16.80;;
56037;SDS011;41907;47.848;9.000;2023-02-23T01:46:31;27.65;;;16.25;;
56037;SDS011;41907;47.848;9.000;2023-02-23T01:49:03;29.52;;;16.33;;
56037;SDS011;41907;47.848;9.000;2023-02-23T01:51:33;27.48;;;16.88;;
56037;SDS011;41907;47.848;9.000;2023-02-23T01:54:08;29.60;;;17.73;;
56037;SDS011;41907;47.848;9.000;2023-02-23T01:56:41;27.13;;;16.88;;
56037;SDS011;41907;47.848;9.000;2023-02-23T01:59:09;36.17;;;18.73;;
56037;SDS011;41907;47.848;9.000;2023-02-23T02:01:39;33.38;;;18.73;;
56037;SDS011;41907;47.848;9.000;2023-02-23T02:04:06;30.90;;;18.27;;
56037;SDS011;41907;47.848;9.000;2023-02-23T02:06:33;30.20;;;17.50;;
56037;SDS011;41907;47.848;9.000;2023-02-23T02:09:02;30.85;;;17.98;;
56037;SDS011;41907;47.848;9.000;2023-02-23T02:11:31;31.33;;;18.05;;
56037;SDS011;41907;47.848;9.000;2023-02-23T02:14:13;33.20;;;17.17;;
56037;SDS011;41907;47.848;9.000;2023-02-23T02:25:35;34.08;;;18.55;;
56037;SDS011;41907;47.848;9.000;2023-02-23T02:28:28;30.52;;;16.98;;
56037;SDS011;41907;47.848;9.000;2023-02-23T02:33:59;32.58;;;18.17;;
56037;SDS011;41907;47.848;9.000;2023-02-23T02:39:22;30.55;;;16.60;;
56037;SDS011;41907;47.848;9.000;2023-02-23T02:42:11;35.22;;;17.65;;
56037;SDS011;41907;47.848;9.000;2023-02-23T02:44:54;28.45;;;15.98;;
56037;SDS011;41907;47.848;9.000;2023-02-23T02:47:33;34.38;;;18.00;;
56037;SDS011;41907;47.848;9.000;2023-02-23T02:52:46;29.33;;;15.27;;
56037;SDS011;41907;47.848;9.000;2023-02-23T02:55:26;32.85;;;16.73;;
56037;SDS011;41907;47.848;9.000;2023-02-23T02:57:58;29.08;;;16.35;;
56037;SDS011;41907;47.848;9.000;2023-02-23T03:00:45;30.85;;;16.60;;
56037;SDS011;41907;47.848;9.000;2023-02-23T03:03:32;27.85;;;16.10;;
56037;SDS011;41907;47.848;9.000;2023-02-23T03:06:21;29.30;;;15.48;;
56037;SDS011;41907;47.848;9.000;2023-02-23T03:09:19;32.88;;;16.60;;
56037;SDS011;41907;47.848;9.000;2023-02-23T03:12:09;30.45;;;16.52;;
56037;SDS011;41907;47.848;9.000;2023-02-23T03:15:12;28.05;;;15.40;;
56037;SDS011;41907;47.848;9.000;2023-02-23T03:18:31;30.63;;;16.10;;
56037;SDS011;41907;47.848;9.000;2023-02-23T03:24:41;32.35;;;16.30;;
56037;SDS011;41907;47.848;9.000;2023-02-23T03:27:51;31.63;;;17.77;;
56037;SDS011;41907;47.848;9.000;2023-02-23T03:37:02;34.35;;;17.45;;
56037;SDS011;41907;47.848;9.000;2023-02-23T03:40:00;25.42;;;14.73;;
56037;SDS011;41907;47.848;9.000;2023-02-23T03:42:50;29.83;;;16.13;;
56037;SDS011;41907;47.848;9.000;2023-02-23T03:45:38;31.33;;;17.40;;
56037;SDS011;41907;47.848;9.000;2023-02-23T03:48:23;28.52;;;15.68;;
56037;SDS011;41907;47.848;9.000;2023-02-23T03:51:10;32.22;;;17.30;;
56037;SDS011;41907;47.848;9.000;2023-02-23T03:54:01;36.78;;;17.85;;
56037;SDS011;41907;47.848;9.000;2023-02-23T03:56:52;30.25;;;16.92;;
56037;SDS011;41907;47.848;9.000;2023-02-23T03:59:43;31.27;;;16.42;;
56037;SDS011;41907;47.848;9.000;2023-02-23T04:02:34;29.42;;;16.58;;
56037;SDS011;41907;47.848;9.000;2023-02-23T04:05:20;33.78;;;17.52;;
56037;SDS011;41907;47.848;9.000;2023-02-23T04:08:06;31.50;;;16.98;;
56037;SDS011;41907;47.848;9.000;2023-02-23T04:10:59;33.55;;;16.88;;
56037;SDS011;41907;47.848;9.000;2023-02-23T04:13:53;32.95;;;17.20;;
56037;SDS011;41907;47.848;9.000;2023-02-23T04:16:24;33.50;;;17.50;;
56037;SDS011;41907;47.848;9.000;2023-02-23T04:18:52;33.40;;;17.55;;
56037;SDS011;41907;47.848;9.000;2023-02-23T04:21:18;30.60;;;16.25;;
56037;SDS011;41907;47.848;9.000;2023-02-23T04:23:44;30.05;;;17.30;;
56037;SDS011;41907;47.848;9.000;2023-02-23T04:26:09;31.55;;;18.02;;
56037;SDS011;41907;47.848;9.000;2023-02-23T04:28:34;42.33;;;22.70;;
56037;SDS011;41907;47.848;9.000;2023-02-23T04:31:00;64.32;;;34.45;;
56037;SDS011;41907;47.848;9.000;2023-02-23T04:33:26;40.58;;;21.50;;
56037;SDS011;41907;47.848;9.000;2023-02-23T04:35:52;32.03;;;17.45;;
56037;SDS011;41907;47.848;9.000;2023-02-23T04:38:18;30.42;;;17.17;;
56037;SDS011;41907;47.848;9.000;2023-02-23T04:40:44;30.40;;;16.10;;
56037;SDS011;41907;47.848;9.000;2023-02-23T04:43:12;33.30;;;17.13;;
56037;SDS011;41907;47.848;9.000;2023-02-23T04:45:38;29.70;;;16.23;;
56037;SDS011;41907;47.848;9.000;2023-02-23T04:48:04;30.00;;;16.88;;
56037;SDS011;41907;47.848;9.000;2023-02-23T04:50:30;36.78;;;17.05;;
56037;SDS011;41907;47.848;9.000;2023-02-23T04:52:55;33.35;;;16.98;;
56037;SDS011;41907;47.848;9.000;2023-02-23T04:55:22;30.90;;;16.67;;
56037;SDS011;41907;47.848;9.000;2023-02-23T04:57:48;33.08;;;17.08;;
56037;SDS011;41907;47.848;9.000;2023-02-23T05:00:14;32.38;;;16.23;;
56037;SDS011;41907;47.848;9.000;2023-02-23T05:02:40;30.35;;;15.98;;
56037;SDS011;41907;47.848;9.000;2023-02-23T05:05:06;38.95;;;18.65;;
56037;SDS011;41907;47.848;9.000;2023-02-23T05:07:33;30.20;;;17.10;;
56037;SDS011;41907;47.848;9.000;2023-02-23T05:09:58;32.60;;;18.65;;
56037;SDS011;41907;47.848;9.000;2023-02-23T05:12:24;48.72;;;24.58;;
56037;SDS011;41907;47.848;9.000;2023-02-23T05:14:49;37.17;;;20.98;;
56037;SDS011;41907;47.848;9.000;2023-02-23T05:17:15;33.10;;;18.63;;
56037;SDS011;41907;47.848;9.000;2023-02-23T05:19:40;36.40;;;17.45;;
56037;SDS011;41907;47.848;9.000;2023-02-23T05:22:06;34.47;;;17.50;;
56037;SDS011;41907;47.848;9.000;2023-02-23T05:24:31;28.33;;;16.00;;
56037;SDS011;41907;47.848;9.000;2023-02-23T05:26:56;29.77;;;17.15;;
56037;SDS011;41907;47.848;9.000;2023-02-23T05:29:22;28.50;;;16.58;;
56037;SDS011;41907;47.848;9.000;2023-02-23T05:31:48;37.55;;;19.00;;
56037;SDS011;41907;47.848;9.000;2023-02-23T05:34:13;29.27;;;16.45;;
56037;SDS011;41907;47.848;9.000;2023-02-23T05:36:40;32.70;;;17.17;;
56037;SDS011;41907;47.848;9.000;2023-02-23T05:39:06;33.92;;;18.67;;
56037;SDS011;41907;47.848;9.000;2023-02-23T05:41:31;32.25;;;18.75;;
56037;SDS011;41907;47.848;9.000;2023-02-23T05:43:57;34.88;;;19.20;;
56037;SDS011;41907;47.848;9.000;2023-02-23T05:46:23;37.47;;;19.30;;
56037;SDS011;41907;47.848;9.000;2023-02-23T05:48:50;33.35;;;18.52;;
56037;SDS011;41907;47.848;9.000;2023-02-23T05:51:20;36.75;;;19.52;;
56037;SDS011;41907;47.848;9.000;2023-02-23T05:53:45;34.65;;;19.40;;
56037;SDS011;41907;47.848;9.000;2023-02-23T05:56:11;34.50;;;19.30;;
56037;SDS011;41907;47.848;9.000;2023-02-23T05:58:44;37.00;;;20.65;;
56037;SDS011;41907;47.848;9.000;2023-02-23T06:01:10;34.97;;;19.45;;
56037;SDS011;41907;47.848;9.000;2023-02-23T06:03:35;36.63;;;20.95;;
56037;SDS011;41907;47.848;9.000;2023-02-23T06:06:01;34.67;;;19.95;;
56037;SDS011;41907;47.848;9.000;2023-02-23T06:08:27;36.72;;;20.70;;
56037;SDS011;41907;47.848;9.000;2023-02-23T06:10:52;36.42;;;19.27;;
56037;SDS011;41907;47.848;9.000;2023-02-23T06:13:17;33.33;;;19.83;;
56037;SDS011;41907;47.848;9.000;2023-02-23T06:15:43;31.23;;;18.05;;
56037;SDS011;41907;47.848;9.000;2023-02-23T06:18:09;34.22;;;19.17;;
56037;SDS011;41907;47.848;9.000;2023-02-23T06:20:35;35.60;;;19.17;;
56037;SDS011;41907;47.848;9.000;2023-02-23T06:23:01;37.75;;;19.98;;
56037;SDS011;41907;47.848;9.000;2023-02-23T06:25:27;35.83;;;18.83;;
56037;SDS011;41907;47.848;9.000;2023-02-23T06:27:52;31.10;;;17.67;;
56037;SDS011;41907;47.848;9.000;2023-02-23T06:30:18;33.42;;;18.23;;
56037;SDS011;41907;47.848;9.000;2023-02-23T06:32:44;32.13;;;17.90;;
56037;SDS011;41907;47.848;9.000;2023-02-23T06:35:09;32.25;;;19.40;;
56037;SDS011;41907;47.848;9.000;2023-02-23T06:37:35;49.63;;;24.80;;
56037;SDS011;41907;47.848;9.000;2023-02-23T06:40:01;31.45;;;19.00;;
56037;SDS011;41907;47.848;9.000;2023-02-23T06:42:30;33.47;;;19.50;;
56037;SDS011;41907;47.848;9.000;2023-02-23T06:44:55;32.80;;;19.30;;
56037;SDS011;41907;47.848;9.000;2023-02-23T06:47:20;36.10;;;20.83;;
56037;SDS011;41907;47.848;9.000;2023-02-23T06:49:46;35.17;;;20.15;;
56037;SDS011;41907;47.848;9.000;2023-02-23T06:52:11;39.20;;;21.25;;
56037;SDS011;41907;47.848;9.000;2023-02-23T06:54:37;34.75;;;21.38;;
56037;SDS011;41907;47.848;9.000;2023-02-23T06:57:04;44.63;;;23.10;;
56037;SDS011;41907;47.848;9.000;2023-02-23T06:59:30;40.67;;;21.67;;
56037;SDS011;41907;47.848;9.000;2023-02-23T07:01:55;39.35;;;22.65;;
56037;SDS011;41907;47.848;9.000;2023-02-23T07:04:21;37.70;;;22.40;;
56037;SDS011;41907;47.848;9.000;2023-02-23T07:06:46;40.03;;;22.08;;
56037;SDS011;41907;47.848;9.000;2023-02-23T07:09:12;38.88;;;21.40;;
56037;SDS011;41907;47.848;9.000;2023-02-23T07:11:39;41.53;;;23.52;;
56037;SDS011;41907;47.848;9.000;2023-02-23T07:14:05;43.20;;;22.83;;
56037;SDS011;41907;47.848;9.000;2023-02-23T07:16:33;41.35;;;22.50;;
56037;SDS011;41907;47.848;9.000;2023-02-23T07:18:59;41.47;;;22.20;;
56037;SDS011;41907;47.848;9.000;2023-02-23T07:21:24;45.50;;;23.55;;
56037;SDS011;41907;47.848;9.000;2023-02-23T07:23:49;47.85;;;24.85;;
56037;SDS011;41907;47.848;9.000;2023-02-23T07:26:15;45.30;;;23.48;;
56037;SDS011;41907;47.848;9.000;2023-02-23T07:28:42;42.45;;;22.73;;
56037;SDS011;41907;47.848;9.000;2023-02-23T07:31:08;48.13;;;25.00;;
56037;SDS011;41907;47.848;9.000;2023-02-23T07:33:33;52.25;;;25.90;;
56037;SDS011;41907;47.848;9.000;2023-02-23T07:35:59;44.38;;;24.17;;
56037;SDS011;41907;47.848;9.000;2023-02-23T07:38:25;47.00;;;24.55;;
56037;SDS011;41907;47.848;9.000;2023-02-23T07:40:50;52.53;;;27.50;;
56037;SDS011;41907;47.848;9.000;2023-02-23T07:43:16;48.00;;;26.48;;
56037;SDS011;41907;47.848;9.000;2023-02-23T07:45:41;47.10;;;25.55;;
56037;SDS011;41907;47.848;9.000;2023-02-23T07:48:07;46.60;;;24.88;;
56037;SDS011;41907;47.848;9.000;2023-02-23T07:50:33;44.03;;;23.95;;
56037;SDS011;41907;47.848;9.000;2023-02-23T07:52:59;43.97;;;24.80;;
56037;SDS011;41907;47.848;9.000;2023-02-23T07:55:25;45.35;;;22.95;;
56037;SDS011;41907;47.848;9.000;2023-02-23T07:57:50;37.17;;;20.83;;
56037;SDS011;41907;47.848;9.000;2023-02-23T08:00:16;36.67;;;21.48;;
56037;SDS011;41907;47.848;9.000;2023-02-23T08:02:42;37.60;;;21.08;;
56037;SDS011;41907;47.848;9.000;2023-02-23T08:05:07;38.75;;;22.05;;
56037;SDS011;41907;47.848;9.000;2023-02-23T08:07:33;39.75;;;22.13;;
56037;SDS011;41907;47.848;9.000;2023-02-23T08:09:58;34.78;;;20.13;;
56037;SDS011;41907;47.848;9.000;2023-02-23T08:12:24;37.20;;;21.17;;
56037;SDS011;41907;47.848;9.000;2023-02-23T08:14:49;40.28;;;22.35;;
56037;SDS011;41907;47.848;9.000;2023-02-23T08:17:14;40.90;;;21.38;;
56037;SDS011;41907;47.848;9.000;2023-02-23T08:19:40;38.40;;;21.60;;
56037;SDS011;41907;47.848;9.000;2023-02-23T08:22:05;38.17;;;21.10;;
56037;SDS011;41907;47.848;9.000;2023-02-23T08:24:30;41.17;;;22.33;;
56037;SDS011;41907;47.848;9.000;2023-02-23T08:26:56;39.65;;;22.17;;
56037;SDS011;41907;47.848;9.000;2023-02-23T08:29:22;41.88;;;23.58;;
56037;SDS011;41907;47.848;9.000;2023-02-23T08:31:48;47.53;;;24.15;;
56037;SDS011;41907;47.848;9.000;2023-02-23T08:34:16;44.35;;;23.13;;
56037;SDS011;41907;47.848;9.000;2023-02-23T08:36:42;42.22;;;23.02;;
56037;SDS011;41907;47.848;9.000;2023-02-23T08:39:09;40.67;;;22.02;;
56037;SDS011;41907;47.848;9.000;2023-02-23T08:41:36;41.03;;;22.23;;
56037;SDS011;41907;47.848;9.000;2023-02-23T08:44:01;35.50;;;21.30;;
56037;SDS011;41907;47.848;9.000;2023-02-23T08:46:27;43.78;;;22.10;;
56037;SDS011;41907;47.848;9.000;2023-02-23T08:48:52;40.03;;;21.75;;
56037;SDS011;41907;47.848;9.000;2023-02-23T08:51:19;42.00;;;19.15;;
56037;SDS011;41907;47.848;9.000;2023-02-23T08:53:44;37.20;;;20.45;;
56037;SDS011;41907;47.848;9.000;2023-02-23T08:56:10;35.17;;;19.85;;
56037;SDS011;41907;47.848;9.000;2023-02-23T08:58:36;40.22;;;20.42;;
56037;SDS011;41907;47.848;9.000;2023-02-23T09:01:02;33.63;;;19.75;;
56037;SDS011;41907;47.848;9.000;2023-02-23T09:03:28;34.35;;;18.10;;
56037;SDS011;41907;47.848;9.000;2023-02-23T09:05:57;49.15;;;27.70;;
56037;SDS011;41907;47.848;9.000;2023-02-23T09:08:29;46.72;;;27.67;;
56037;SDS011;41907;47.848;9.000;2023-02-23T09:10:54;32.50;;;19.40;;
56037;SDS011;41907;47.848;9.000;2023-02-23T09:13:19;28.08;;;16.92;;
56037;SDS011;41907;47.848;9.000;2023-02-23T09:15:45;26.60;;;15.15;;
56037;SDS011;41907;47.848;9.000;2023-02-23T09:18:10;28.65;;;15.93;;
56037;SDS011;41907;47.848;9.000;2023-02-23T09:20:41;24.30;;;14.93;;
56037;SDS011;41907;47.848;9.000;2023-02-23T09:23:08;25.35;;;16.15;;
56037;SDS011;41907;47.848;9.000;2023-02-23T09:25:37;27.75;;;15.00;;
56037;SDS011;41907;47.848;9.000;2023-02-23T09:28:08;25.20;;;14.30;;
56037;SDS011;41907;47.848;9.000;2023-02-23T09:30:37;22.45;;;13.65;;
56037;SDS011;41907;47.848;9.000;2023-02-23T09:33:04;22.50;;;11.95;;
56037;SDS011;41907;47.848;9.000;2023-02-23T09:35:31;22.83;;;13.30;;
56037;SDS011;41907;47.848;9.000;2023-02-23T09:37:58;22.92;;;14.10;;
56037;SDS011;41907;47.848;9.000;2023-02-23T09:40:24;19.35;;;11.13;;
56037;SDS011;41907;47.848;9.000;2023-02-23T09:50:36;21.52;;;11.73;;
56037;SDS011;41907;47.848;9.000;2023-02-23T09:53:05;22.27;;;11.77;;
56037;SDS011;41907;47.848;9.000;2023-02-23T09:55:41;18.42;;;11.15;;
56037;SDS011;41907;47.848;9.000;2023-02-23T09:58:13;16.23;;;10.73;;
56037;SDS011;41907;47.848;9.000;2023-02-23T10:01:25;16.35;;;10.52;;
56037;SDS011;41907;47.848;9.000;2023-02-23T10:03:57;16.15;;;9.98;;
56037;SDS011;41907;47.848;9.000;2023-02-23T10:06:29;14.98;;;8.65;;
56037;SDS011;41907;47.848;9.000;2023-02-23T10:09:02;13.07;;;8.70;;
56037;SDS011;41907;47.848;9.000;2023-02-23T10:11:40;14.82;;;9.85;;
56037;SDS011;41907;47.848;9.000;2023-02-23T10:19:38;18.70;;;11.38;;
56037;SDS011;41907;47.848;9.000;2023-02-23T10:22:08;18.60;;;11.43;;
56037;SDS011;41907;47.848;9.000;2023-02-23T10:24:38;20.83;;;11.82;;
56037;SDS011;41907;47.848;9.000;2023-02-23T10:27:11;17.55;;;11.07;;
56037;SDS011;41907;47.848;9.000;2023-02-23T10:29:41;20.73;;;11.23;;
56037;SDS011;41907;47.848;9.000;2023-02-23T10:32:14;18.67;;;10.50;;
56037;SDS011;41907;47.848;9.000;2023-02-23T10:34:42;20.23;;;11.25;;
56037;SDS011;41907;47.848;9.000;2023-02-23T10:37:11;19.08;;;11.25;;
56037;SDS011;41907;47.848;9.000;2023-02-23T10:39:38;17.05;;;11.48;;
56037;SDS011;41907;47.848;9.000;2023-02-23T10:42:06;17.30;;;11.38;;
56037;SDS011;41907;47.848;9.000;2023-02-23T10:44:39;15.80;;;10.98;;
56037;SDS011;41907;47.848;9.000;2023-02-23T10:47:11;19.25;;;13.13;;
56037;SDS011;41907;47.848;9.000;2023-02-23T10:49:42;14.30;;;9.43;;
56037;SDS011;41907;47.848;9.000;2023-02-23T10:52:10;13.45;;;10.02;;
56037;SDS011;41907;47.848;9.000;2023-02-23T10:54:43;17.10;;;11.15;;
56037;SDS011;41907;47.848;9.000;2023-02-23T10:57:12;13.02;;;9.27;;
56037;SDS011;41907;47.848;9.000;2023-02-23T11:00:04;14.00;;;9.50;;
56037;SDS011;41907;47.848;9.000;2023-02-23T11:02:45;13.93;;;8.88;;
56037;SDS011;41907;47.848;9.000;2023-02-23T11:08:08;13.73;;;9.18;;
56037;SDS011;41907;47.848;9.000;2023-02-23T11:10:54;17.48;;;9.90;;
56037;SDS011;41907;47.848;9.000;2023-02-23T11:13:33;14.50;;;9.35;;
56037;SDS011;41907;47.848;9.000;2023-02-23T11:18:40;15.65;;;10.18;;
56037;SDS011;41907;47.848;9.000;2023-02-23T11:23:56;13.68;;;9.32;;
56037;SDS011;41907;47.848;9.000;2023-02-23T11:26:35;14.55;;;9.50;;
56037;SDS011;41907;47.848;9.000;2023-02-23T11:29:16;14.73;;;9.68;;
56037;SDS011;41907;47.848;9.000;2023-02-23T11:31:49;12.50;;;8.90;;
56037;SDS011;41907;47.848;9.000;2023-02-23T11:34:19;14.52;;;9.07;;
56037;SDS011;41907;47.848;9.000;2023-02-23T11:36:56;14.25;;;9.00;;
56037;SDS011;41907;47.848;9.000;2023-02-23T11:39:24;13.60;;;9.68;;
56037;SDS011;41907;47.848;9.000;2023-02-23T11:44:50;17.23;;;10.43;;
56037;SDS011;41907;47.848;9.000;2023-02-23T11:47:26;15.40;;;10.13;;
56037;SDS011;41907;47.848;9.000;2023-02-23T11:49:52;11.82;;;9.10;;
56037;SDS011;41907;47.848;9.000;2023-02-23T11:52:18;13.32;;;8.40;;
56037;SDS011;41907;47.848;9.000;2023-02-23T11:54:56;15.20;;;10.70;;
56037;SDS011;41907;47.848;9.000;2023-02-23T11:57:31;15.63;;;9.10;;
56037;SDS011;41907;47.848;9.000;2023-02-23T11:59:59;10.85;;;7.60;;
56037;SDS011;41907;47.848;9.000;2023-02-23T12:02:28;12.68;;;8.25;;
56037;SDS011;41907;47.848;9.000;2023-02-23T12:05:08;14.82;;;9.32;;
56037;SDS011;41907;47.848;9.000;2023-02-23T12:08:30;18.40;;;11.55;;
56037;SDS011;41907;47.848;9.000;2023-02-23T12:10:42;12.60;;;8.95;;
56037;SDS011;41907;47.848;9.000;2023-02-23T12:13:15;10.55;;;7.43;;
56037;SDS011;41907;47.848;9.000;2023-02-23T12:18:42;9.00;;;5.68;;
56037;SDS011;41907;47.848;9.000;2023-02-23T12:23:50;10.20;;;6.18;;
56037;SDS011;41907;47.848;9.000;2023-02-23T12:26:25;11.13;;;7.63;;
56037;SDS011;41907;47.848;9.000;2023-02-23T12:28:52;12.02;;;6.88;;
56037;SDS011;41907;47.848;9.000;2023-02-23T12:31:27;8.85;;;6.50;;
56037;SDS011;41907;47.848;9.000;2023-02-23T12:34:09;14.40;;;9.05;;
56037;SDS011;41907;47.848;9.000;2023-02-23T12:36:43;15.55;;;8.70;;
56037;SDS011;41907;47.848;9.000;2023-02-23T12:45:16;13.38;;;7.88;;
56037;SDS011;41907;47.848;9.000;2023-02-23T12:47:54;12.82;;;8.23;;
56037;SDS011;41907;47.848;9.000;2023-02-23T12:53:21;18.10;;;8.45;;
56037;SDS011;41907;47.848;9.000;2023-02-23T12:58:31;15.10;;;6.88;;
56037;SDS011;41907;47.848;9.000;2023-02-23T13:01:05;13.38;;;7.53;;
56037;SDS011;41907;47.848;9.000;2023-02-23T13:08:57;14.32;;;7.38;;
56037;SDS011;41907;47.848;9.000;2023-02-23T13:14:44;14.25;;;7.15;;
56037;SDS011;41907;47.848;9.000;2023-02-23T13:20:32;13.40;;;7.72;;
56037;SDS011;41907;47.848;9.000;2023-02-23T13:23:24;10.35;;;6.05;;
56037;SDS011;41907;47.848;9.000;2023-02-23T13:26:17;9.70;;;6.15;;
56037;SDS011;41907;47.848;9.000;2023-02-23T13:31:24;14.82;;;7.47;;
56037;SDS011;41907;47.848;9.000;2023-02-23T13:33:50;22.08;;;12.80;;
56037;SDS011;41907;47.848;9.000;2023-02-23T13:36:18;16.30;;;7.93;;
56037;SDS011;41907;47.848;9.000;2023-02-23T13:38:48;13.40;;;8.32;;
56037;SDS011;41907;47.848;9.000;2023-02-23T13:46:50;16.10;;;7.85;;
56037;SDS011;41907;47.848;9.000;2023-02-23T13:49:30;15.57;;;6.90;;
56037;SDS011;41907;47.848;9.000;2023-02-23T13:52:08;14.68;;;6.93;;
56037;SDS011;41907;47.848;9.000;2023-02-23T13:54:55;12.02;;;6.15;;
56037;SDS011;41907;47.848;9.000;2023-02-23T13:57:27;9.65;;;6.40;;
56037;SDS011;41907;47.848;9.000;2023-02-23T13:59:54;15.63;;;6.55;;
56037;SDS011;41907;47.848;9.000;2023-02-23T14:05:05;14.02;;;9.50;;
56037;SDS011;41907;47.848;9.000;2023-02-23T14:07:42;14.07;;;6.78;;
56037;SDS011;41907;47.848;9.000;2023-02-23T14:10:20;13.43;;;6.40;;
56037;SDS011;41907;47.848;9.000;2023-02-23T14:15:45;11.68;;;5.80;;
56037;SDS011;41907;47.848;9.000;2023-02-23T14:20:54;9.73;;;6.20;;
56037;SDS011;41907;47.848;9.000;2023-02-23T14:28:34;12.27;;;6.80;;
56037;SDS011;41907;47.848;9.000;2023-02-23T14:36:26;14.57;;;6.97;;
56037;SDS011;41907;47.848;9.000;2023-02-23T14:44:11;9.02;;;5.53;;
56037;SDS011;41907;47.848;9.000;2023-02-23T14:46:46;14.55;;;6.30;;
56037;SDS011;41907;47.848;9.000;2023-02-23T14:49:17;16.27;;;8.68;;
56037;SDS011;41907;47.848;9.000;2023-02-23T14:51:45;25.83;;;15.15;;
56037;SDS011;41907;47.848;9.000;2023-02-23T14:56:50;16.98;;;11.48;;
56037;SDS011;41907;47.848;9.000;2023-02-23T14:59:21;13.93;;;6.55;;
56037;SDS011;41907;47.848;9.000;2023-02-23T15:01:51;12.05;;;6.22;;
56037;SDS011;41907;47.848;9.000;2023-02-23T15:04:18;15.93;;;7.88;;
56037;SDS011;41907;47.848;9.000;2023-02-23T15:06:44;11.85;;;6.70;;
56037;SDS011;41907;47.848;9.000;2023-02-23T15:09:44;12.20;;;6.20;;
56037;SDS011;41907;47.848;9.000;2023-02-23T15:12:17;17.23;;;8.77;;
56037;SDS011;41907;47.848;9.000;2023-02-23T15:14:45;12.48;;;6.97;;
56037;SDS011;41907;47.848;9.000;2023-02-23T15:17:21;12.82;;;6.43;;
56037;SDS011;41907;47.848;9.000;2023-02-23T15:19:52;11.40;;;6.38;;
56037;SDS011;41907;47.848;9.000;2023-02-23T15:22:22;14.00;;;8.10;;
56037;SDS011;41907;47.848;9.000;2023-02-23T15:24:50;13.30;;;7.30;;
56037;SDS011;41907;47.848;9.000;2023-02-23T15:27:17;12.13;;;6.45;;
56037;SDS011;41907;47.848;9.000;2023-02-23T15:29:46;12.52;;;7.88;;
56037;SDS011;41907;47.848;9.000;2023-02-23T15:32:17;12.40;;;7.50;;
56037;SDS011;41907;47.848;9.000;2023-02-23T15:34:44;13.00;;;7.03;;
56037;SDS011;41907;47.848;9.000;2023-02-23T15:40:12;9.70;;;6.47;;
56037;SDS011;41907;47.848;9.000;2023-02-23T15:42:42;26.48;;;14.95;;
56037;SDS011;41907;47.848;9.000;2023-02-23T15:47:51;10.60;;;5.93;;
56037;SDS011;41907;47.848;9.000;2023-02-23T15:50:22;13.93;;;5.53;;
56037;SDS011;41907;47.848;9.000;2023-02-23T15:52:56;10.93;;;5.47;;
56037;SDS011;41907;47.848;9.000;2023-02-23T15:55:35;13.38;;;4.97;;
56037;SDS011;41907;47.848;9.000;2023-02-23T15:58:09;10.20;;;4.43;;
56037;SDS011;41907;47.848;9.000;2023-02-23T16:00:56;13.70;;;5.57;;
56037;SDS011;41907;47.848;9.000;2023-02-23T16:03:45;15.55;;;6.88;;
56037;SDS011;41907;47.848;9.000;2023-02-23T16:06:21;10.38;;;5.35;;
56037;SDS011;41907;47.848;9.000;2023-02-23T16:08:58;14.40;;;6.05;;
56037;SDS011;41907;47.848;9.000;2023-02-23T16:11:33;12.18;;;5.63;;
56037;SDS011;41907;47.848;9.000;2023-02-23T16:14:01;11.15;;;6.03;;
56037;SDS011;41907;47.848;9.000;2023-02-23T16:16:28;10.18;;;5.50;;
56037;SDS011;41907;47.848;9.000;2023-02-23T16:18:57;12.05;;;6.80;;
56037;SDS011;41907;47.848;9.000;2023-02-23T16:21:27;14.48;;;5.72;;
56037;SDS011;41907;47.848;9.000;2023-02-23T16:23:59;11.90;;;6.00;;
56037;SDS011;41907;47.848;9.000;2023-02-23T16:26:46;12.70;;;6.55;;
56037;SDS011;41907;47.848;9.000;2023-02-23T16:29:32;11.25;;;5.82;;
56037;SDS011;41907;47.848;9.000;2023-02-23T16:32:08;9.20;;;5.75;;
56037;SDS011;41907;47.848;9.000;2023-02-23T16:34:46;11.80;;;5.68;;
56037;SDS011;41907;47.848;9.000;2023-02-23T16:37:16;11.97;;;6.07;;
56037;SDS011;41907;47.848;9.000;2023-02-23T16:39:47;13.43;;;5.78;;
56037;SDS011;41907;47.848;9.000;2023-02-23T16:42:32;11.63;;;6.40;;
56037;SDS011;41907;47.848;9.000;2023-02-23T16:47:40;12.70;;;5.22;;
56037;SDS011;41907;47.848;9.000;2023-02-23T16:50:11;11.68;;;4.75;;
56037;SDS011;41907;47.848;9.000;2023-02-23T16:52:41;10.85;;;5.35;;
56037;SDS011;41907;47.848;9.000;2023-02-23T16:55:11;10.27;;;3.55;;